createdAt,value
2023-04-18T00:01:40.778Z,7.63
2023-04-18T00:04:46.403Z,7.63
2023-04-18T00:07:49.418Z,9.10
2023-04-18T00:10:52.237Z,8.80
2023-04-18T00:13:57.506Z,9.47
2023-04-18T00:17:01.432Z,9.40
2023-04-18T00:20:07.138Z,10.67
2023-04-18T00:23:14.078Z,10.13
2023-04-18T00:26:16.915Z,9.43
2023-04-18T00:29:20.890Z,9.57
2023-04-18T00:32:23.633Z,12.30
2023-04-18T00:35:26.376Z,10.87
2023-04-18T00:38:29.033Z,8.87
2023-04-18T00:41:31.719Z,9.67
2023-04-18T00:44:35.668Z,11.70
2023-04-18T00:47:38.449Z,11.97
2023-04-18T00:50:41.903Z,11.00
2023-04-18T00:53:45.975Z,9.83
2023-04-18T00:56:49.235Z,12.67
2023-04-18T00:59:53.438Z,10.50
2023-04-18T01:02:56.429Z,11.80
2023-04-18T01:06:01.037Z,12.90
2023-04-18T01:09:05.549Z,10.17
2023-04-18T01:12:08.276Z,11.90
2023-04-18T01:15:12.791Z,9.50
2023-04-18T01:18:16.902Z,9.27
2023-04-18T01:21:20.104Z,12.10
2023-04-18T01:24:26.749Z,13.87
2023-04-18T01:27:29.428Z,11.03
2023-04-18T01:30:32.150Z,10.50
2023-04-18T01:33:34.839Z,11.27
2023-04-18T01:36:39.631Z,9.80
2023-04-18T01:39:43.646Z,10.73
2023-04-18T01:42:46.434Z,12.93
2023-04-18T01:45:49.081Z,11.80
2023-04-18T01:48:51.929Z,9.60
2023-04-18T01:51:54.654Z,10.03
2023-04-18T01:54:58.602Z,13.57
2023-04-18T01:58:01.847Z,12.57
2023-04-18T02:01:04.763Z,11.10
2023-04-18T02:04:07.602Z,10.33
2023-04-18T02:07:10.496Z,11.10
2023-04-18T02:10:14.485Z,12.53
2023-04-18T02:13:17.116Z,11.27
2023-04-18T02:16:19.812Z,9.43
2023-04-18T02:19:22.508Z,10.87
2023-04-18T02:22:25.226Z,9.30
2023-04-18T02:25:29.406Z,10.23
2023-04-18T02:28:32.066Z,9.47
2023-04-18T02:31:34.872Z,8.90
2023-04-18T02:34:37.951Z,10.47
2023-04-18T02:37:40.777Z,10.83
2023-04-18T02:40:44.773Z,9.97
2023-04-18T02:43:47.635Z,8.90
2023-04-18T02:46:50.485Z,10.70
2023-04-18T02:49:53.324Z,8.97
2023-04-18T02:52:56.845Z,8.87
2023-04-18T02:56:01.208Z,9.20
2023-04-18T02:59:03.824Z,8.17
2023-04-18T03:02:06.561Z,9.90
2023-04-18T03:05:09.450Z,9.53
2023-04-18T03:08:12.295Z,9.83
2023-04-18T03:11:16.410Z,9.43
2023-04-18T03:14:19.034Z,9.20
2023-04-18T03:17:21.721Z,10.87
2023-04-18T03:20:24.459Z,8.67
2023-04-18T03:23:27.127Z,8.60
2023-04-18T03:26:31.856Z,9.93
2023-04-18T03:29:34.537Z,12.80
2023-04-18T03:32:37.273Z,10.33
2023-04-18T03:35:39.986Z,10.30
2023-04-18T03:38:42.795Z,9.63
2023-04-18T03:41:46.777Z,10.07
2023-04-18T03:44:50.590Z,11.73
2023-04-18T03:47:53.256Z,12.20
2023-04-18T03:50:56.031Z,9.87
2023-04-18T03:53:58.884Z,9.57
2023-04-18T03:57:03.149Z,12.87
2023-04-18T04:00:08.182Z,10.10
2023-04-18T04:03:11.378Z,10.20
2023-04-18T04:06:14.299Z,9.73
2023-04-18T04:09:17.015Z,11.70
2023-04-18T04:12:21.027Z,13.83
2023-04-18T04:15:23.871Z,12.47
2023-04-18T04:18:31.015Z,11.37
2023-04-18T04:21:33.920Z,9.53
2023-04-18T04:24:38.486Z,9.57
2023-04-18T04:27:42.785Z,11.37
2023-04-18T04:30:45.594Z,13.17
2023-04-18T04:33:48.209Z,11.77
2023-04-18T04:36:51.069Z,11.13
2023-04-18T04:39:53.681Z,10.87
2023-04-18T04:42:58.570Z,10.57
2023-04-18T04:46:02.843Z,9.53
2023-04-18T04:49:05.520Z,10.03
2023-04-18T04:52:08.209Z,12.43
2023-04-18T04:55:11.417Z,9.53
2023-04-18T04:58:15.865Z,11.13
2023-04-18T05:01:18.646Z,11.00
2023-04-18T05:04:21.717Z,11.20
2023-04-18T05:07:24.888Z,12.60
2023-04-18T05:10:27.630Z,13.53
2023-04-18T05:13:31.694Z,11.20
2023-04-18T05:16:34.460Z,11.90
2023-04-18T05:19:37.282Z,11.30
2023-04-18T05:22:40.157Z,15.67
2023-04-18T05:25:43.090Z,13.07
2023-04-18T05:28:47.152Z,10.47
2023-04-18T05:31:49.820Z,11.07
2023-04-18T05:34:52.451Z,10.77
2023-04-18T05:37:55.188Z,14.43
2023-04-18T05:41:00.223Z,10.67
2023-04-18T05:44:05.600Z,11.93
2023-04-18T05:47:19.840Z,15.17
2023-04-18T05:50:23.094Z,11.93
2023-04-18T05:53:25.805Z,10.87
2023-04-18T05:56:28.517Z,11.30
2023-04-18T05:59:32.517Z,11.77
2023-04-18T06:02:35.281Z,9.77
2023-04-18T06:05:38.299Z,12.80
2023-04-18T06:08:41.271Z,12.27
2023-04-18T06:11:43.878Z,13.30
2023-04-18T06:14:47.856Z,10.43
2023-04-18T06:17:50.448Z,11.90
2023-04-18T06:20:53.055Z,11.83
2023-04-18T06:23:55.732Z,11.77
2023-04-18T06:26:58.481Z,11.33
2023-04-18T06:30:02.521Z,10.40
2023-04-18T06:33:05.311Z,10.93
2023-04-18T06:36:08.957Z,10.37
2023-04-18T06:39:11.692Z,10.17
2023-04-18T06:42:14.657Z,10.60
2023-04-18T06:45:18.709Z,11.13
2023-04-18T06:48:21.582Z,10.40
2023-04-18T06:51:24.196Z,10.20
2023-04-18T06:54:26.893Z,10.70
2023-04-18T06:57:29.916Z,10.07
2023-04-18T07:00:33.882Z,10.23
2023-04-18T07:03:36.627Z,10.67
2023-04-18T07:06:39.335Z,12.37
2023-04-18T07:09:41.919Z,11.27
2023-04-18T07:12:44.567Z,12.90
2023-04-18T07:15:48.689Z,10.90
2023-04-18T07:18:51.746Z,10.73
2023-04-18T07:21:55.889Z,13.13
2023-04-18T07:24:58.488Z,9.33
2023-04-18T07:28:01.042Z,12.07
2023-04-18T07:31:05.146Z,9.60
2023-04-18T07:34:08.946Z,10.30
2023-04-18T07:37:14.650Z,11.73
2023-04-18T07:40:17.614Z,10.13
2023-04-18T07:43:21.033Z,10.47
2023-04-18T07:46:25.196Z,12.07
2023-04-18T07:49:28.592Z,12.77
2023-04-18T07:52:31.252Z,12.37
2023-04-18T07:55:33.907Z,10.70
2023-04-18T07:58:36.762Z,13.40
2023-04-18T08:01:40.792Z,13.30
2023-04-18T08:04:43.630Z,14.07
2023-04-18T08:07:46.512Z,13.43
2023-04-18T08:10:49.105Z,9.97
2023-04-18T08:13:51.712Z,9.13
2023-04-18T08:16:55.654Z,10.70
2023-04-18T08:19:58.699Z,9.97
2023-04-18T08:23:08.447Z,11.33
2023-04-18T08:26:13.149Z,9.73
2023-04-18T08:29:15.956Z,11.03
2023-04-18T08:32:20.081Z,12.00
2023-04-18T08:35:22.769Z,9.83
2023-04-18T08:38:25.852Z,9.18
2023-04-18T08:41:29.543Z,11.13
2023-04-18T08:44:32.735Z,11.95
2023-04-18T08:47:37.269Z,10.73
2023-04-18T08:50:39.962Z,11.73
2023-04-18T08:53:44.671Z,13.90
2023-04-18T08:56:47.805Z,9.90
2023-04-18T08:59:51.268Z,10.68
2023-04-18T09:02:57.081Z,14.45
2023-04-18T09:06:08.312Z,10.93
2023-04-18T09:09:11.022Z,12.88
2023-04-18T09:12:15.223Z,14.30
2023-04-18T09:15:20.181Z,10.93
2023-04-18T09:18:24.195Z,12.23
2023-04-18T09:21:27.865Z,11.52
2023-04-18T09:24:32.410Z,12.10
2023-04-18T09:27:35.876Z,10.88
2023-04-18T09:30:39.826Z,10.60
2023-04-18T09:33:54.082Z,12.10
2023-04-18T09:37:10.960Z,12.33
2023-04-18T09:40:18.584Z,11.30
2023-04-18T09:43:22.060Z,11.85
2023-04-18T09:46:25.340Z,12.07
2023-04-18T09:49:29.902Z,9.03
2023-04-18T09:52:35.768Z,11.98
2023-04-18T09:55:42.262Z,10.63
2023-04-18T09:58:47.953Z,10.35
2023-04-18T10:01:51.371Z,10.63
2023-04-18T10:04:56.882Z,10.30
2023-04-18T10:07:59.627Z,11.33
2023-04-18T10:11:02.537Z,10.50
2023-04-18T10:14:08.635Z,11.37
2023-04-18T10:17:11.899Z,11.13
2023-04-18T10:20:21.120Z,9.93
2023-04-18T10:23:36.486Z,13.03
2023-04-18T10:26:50.095Z,10.55
2023-04-18T10:30:00.938Z,11.82
2023-04-18T10:33:30.268Z,11.07
2023-04-18T10:36:34.369Z,9.68
2023-04-18T10:39:52.068Z,10.40
2023-04-18T10:43:01.075Z,9.83
2023-04-18T10:46:27.767Z,11.70
2023-04-18T10:49:34.364Z,10.25
2023-04-18T10:52:36.995Z,9.70
2023-04-18T10:55:42.918Z,10.82
2023-04-18T10:58:51.106Z,9.73
2023-04-18T11:01:57.983Z,9.30
2023-04-18T11:05:04.462Z,7.68
2023-04-18T11:08:24.217Z,8.07
2023-04-18T11:11:26.854Z,7.45
2023-04-18T11:14:40.417Z,6.35
2023-04-18T11:17:45.038Z,7.53
2023-04-18T11:20:49.167Z,8.98
2023-04-18T11:23:51.868Z,7.35
2023-04-18T11:26:56.393Z,7.70
2023-04-18T11:29:59.289Z,7.13
2023-04-18T11:33:08.388Z,6.72
2023-04-18T11:36:11.359Z,9.05
2023-04-18T11:39:14.310Z,9.80
2023-04-18T11:42:17.221Z,6.05
2023-04-18T11:45:20.190Z,7.50
2023-04-18T11:48:25.041Z,6.95
2023-04-18T11:51:35.657Z,7.03
2023-04-18T11:54:40.502Z,6.70
2023-04-18T11:57:43.116Z,7.07
2023-04-18T12:00:45.890Z,6.65
2023-04-18T12:04:03.400Z,7.07
2023-04-18T12:07:06.600Z,7.88
2023-04-18T12:10:24.422Z,7.47
2023-04-18T12:13:32.191Z,9.30
2023-04-18T12:16:35.058Z,9.05
2023-04-18T12:19:39.221Z,9.40
2023-04-18T12:22:44.496Z,7.93
2023-04-18T12:26:01.489Z,7.90
2023-04-18T12:29:04.591Z,7.60
2023-04-18T12:32:07.399Z,9.82
2023-04-18T12:35:11.722Z,10.63
2023-04-18T12:38:14.622Z,7.80
2023-04-18T12:41:17.244Z,8.73
2023-04-18T12:44:20.036Z,6.40
2023-04-18T12:47:22.820Z,7.50
2023-04-18T12:50:27.943Z,7.40
2023-04-18T12:53:30.690Z,6.63
2023-04-18T12:56:33.318Z,5.70
2023-04-18T12:59:36.517Z,4.38
2023-04-18T13:02:40.502Z,5.03
2023-04-18T13:05:44.824Z,4.70
2023-04-18T13:08:47.792Z,7.93
2023-04-18T13:11:50.595Z,5.88
2023-04-18T13:14:53.392Z,5.20
2023-04-18T13:17:57.176Z,4.30
2023-04-18T13:21:01.399Z,3.47
2023-04-18T13:24:05.402Z,3.45
2023-04-18T13:27:11.124Z,3.95
2023-04-18T13:30:14.466Z,4.18
2023-04-18T13:33:17.826Z,3.95
2023-04-18T13:36:22.403Z,3.53
2023-04-18T13:39:25.876Z,3.85
2023-04-18T13:42:28.564Z,3.15
2023-04-18T13:45:31.304Z,3.70
2023-04-18T13:48:33.992Z,4.68
2023-04-18T13:51:38.180Z,7.32
2023-04-18T13:54:41.434Z,3.35
2023-04-18T13:57:44.380Z,4.18
2023-04-18T14:00:47.166Z,3.95
2023-04-18T14:03:50.187Z,2.80
2023-04-18T14:06:54.481Z,3.53
2023-04-18T14:09:57.226Z,3.15
2023-04-18T14:13:00.640Z,3.15
2023-04-18T14:16:04.503Z,2.95
2023-04-18T14:19:07.739Z,3.67
2023-04-18T14:22:12.018Z,3.20
2023-04-18T14:25:17.079Z,3.22
2023-04-18T14:28:22.083Z,3.50
2023-04-18T14:31:24.885Z,2.80
2023-04-18T14:34:27.843Z,4.28
2023-04-18T14:37:31.943Z,3.53
2023-04-18T14:40:34.741Z,4.28
2023-04-18T14:43:37.593Z,3.50
2023-04-18T14:46:40.535Z,3.67
2023-04-18T14:49:43.257Z,3.42
2023-04-18T14:52:47.643Z,3.00
2023-04-18T14:55:50.527Z,3.38
2023-04-18T14:58:53.112Z,3.25
2023-04-18T15:01:56.075Z,2.65
2023-04-18T15:04:59.314Z,3.85
2023-04-18T15:08:04.473Z,3.83
2023-04-18T15:11:07.970Z,3.10
2023-04-18T15:14:10.718Z,3.60
2023-04-18T15:17:13.354Z,3.47
2023-04-18T15:20:16.136Z,4.18
2023-04-18T15:23:20.656Z,4.47
2023-04-18T15:26:24.156Z,3.03
2023-04-18T15:29:26.941Z,3.92
2023-04-18T15:32:30.089Z,3.40
2023-04-18T15:35:32.789Z,5.25
2023-04-18T15:38:36.716Z,3.97
2023-04-18T15:41:39.815Z,5.38
2023-04-18T15:44:42.518Z,4.07
2023-04-18T15:47:45.177Z,4.03
2023-04-18T15:50:51.236Z,4.80
2023-04-18T15:53:55.446Z,4.57
2023-04-18T15:56:58.166Z,5.03
2023-04-18T16:00:00.988Z,5.13
2023-04-18T16:03:03.774Z,4.45
2023-04-18T16:06:06.878Z,6.25
2023-04-18T16:09:11.184Z,4.45
2023-04-18T16:12:14.252Z,3.58
2023-04-18T16:15:16.895Z,4.40
2023-04-18T16:18:19.666Z,4.28
2023-04-18T16:21:22.377Z,5.60
2023-04-18T16:24:26.502Z,4.55
2023-04-18T16:27:29.268Z,4.05
2023-04-18T16:30:32.040Z,4.82
2023-04-18T16:33:34.729Z,4.80
2023-04-18T16:36:37.575Z,4.03
2023-04-18T16:39:41.542Z,5.43
2023-04-18T16:42:44.161Z,5.25
2023-04-18T16:45:46.871Z,5.68
2023-04-18T16:48:51.768Z,5.35
2023-04-18T16:51:55.087Z,6.00
2023-04-18T16:54:59.029Z,4.55
2023-04-18T16:58:01.710Z,5.40
2023-04-18T17:01:04.451Z,5.40
2023-04-18T17:04:07.084Z,3.88
2023-04-18T17:07:09.784Z,4.10
2023-04-18T17:10:14.107Z,6.78
2023-04-18T17:13:16.711Z,5.63
2023-04-18T17:16:19.372Z,4.45
2023-04-18T17:19:22.278Z,5.53
2023-04-18T17:22:24.895Z,4.97
2023-04-18T17:25:29.204Z,5.05
2023-04-18T17:28:31.850Z,7.15
2023-04-18T17:31:35.110Z,3.95
2023-04-18T17:34:37.809Z,4.47
2023-04-18T17:37:40.465Z,4.82
2023-04-18T17:40:44.472Z,4.35
2023-04-18T17:43:47.527Z,4.75
2023-04-18T17:46:50.642Z,4.63
2023-04-18T17:49:53.329Z,4.35
2023-04-18T17:52:56.023Z,4.63
2023-04-18T17:56:00.143Z,4.75
2023-04-18T17:59:02.995Z,5.60
2023-04-18T18:02:05.886Z,4.50
2023-04-18T18:05:12.799Z,5.18
2023-04-18T18:08:15.901Z,5.57
2023-04-18T18:11:20.473Z,4.90
2023-04-18T18:14:23.139Z,5.93
2023-04-18T18:17:25.893Z,5.20
2023-04-18T18:20:29.303Z,5.30
2023-04-18T18:23:32.172Z,5.60
2023-04-18T18:26:36.921Z,6.60
2023-04-18T18:29:39.548Z,4.68
2023-04-18T18:32:42.234Z,5.55
2023-04-18T18:35:44.818Z,6.18
2023-04-18T18:38:47.407Z,6.53
2023-04-18T18:41:52.099Z,6.57
2023-04-18T18:44:54.772Z,7.75
2023-04-18T18:47:57.441Z,6.28
2023-04-18T18:51:00.084Z,5.97
2023-04-18T18:54:02.716Z,5.72
2023-04-18T18:57:06.803Z,6.18
2023-04-18T19:00:11.933Z,5.00
2023-04-18T19:03:18.354Z,5.55
2023-04-18T19:06:21.125Z,5.38
2023-04-18T19:09:23.739Z,5.70
2023-04-18T19:12:28.200Z,6.28
2023-04-18T19:15:31.050Z,8.85
2023-04-18T19:18:33.704Z,5.85
2023-04-18T19:21:36.423Z,6.70
2023-04-18T19:24:39.076Z,7.28
2023-04-18T19:27:43.705Z,6.47
2023-04-18T19:30:47.127Z,7.03
2023-04-18T19:33:50.602Z,7.53
2023-04-18T19:36:53.204Z,8.40
2023-04-18T19:39:55.921Z,7.30
2023-04-18T19:42:59.903Z,7.97
2023-04-18T19:46:02.718Z,6.18
2023-04-18T19:49:05.712Z,6.88
2023-04-18T19:52:08.379Z,6.38
2023-04-18T19:55:11.344Z,6.53
2023-04-18T19:58:34.214Z,6.60
2023-04-18T20:01:36.985Z,6.07
2023-04-18T20:04:40.540Z,5.95
2023-04-18T20:07:43.423Z,10.18
2023-04-18T20:10:46.057Z,7.35
2023-04-18T20:13:52.084Z,8.57
2023-04-18T20:16:55.888Z,8.93
2023-04-18T20:19:59.629Z,9.43
2023-04-18T20:23:03.565Z,7.40
2023-04-18T20:26:06.587Z,8.03
2023-04-18T20:29:11.250Z,6.97
2023-04-18T20:32:14.411Z,7.90
2023-04-18T20:35:17.026Z,7.00
2023-04-18T20:38:20.101Z,7.07
2023-04-18T20:41:24.251Z,7.57
2023-04-18T20:44:30.061Z,6.83
2023-04-18T20:47:33.361Z,7.50
2023-04-18T20:50:36.028Z,7.60
2023-04-18T20:53:38.784Z,7.93
2023-04-18T20:56:41.585Z,7.17
2023-04-18T20:59:45.737Z,8.52
2023-04-18T21:02:50.524Z,8.88
2023-04-18T21:05:53.637Z,5.93
2023-04-18T21:08:56.259Z,7.47
2023-04-18T21:11:59.321Z,6.90
2023-04-18T21:15:05.409Z,6.13
2023-04-18T21:18:08.097Z,6.83
2023-04-18T21:21:11.693Z,7.23
2023-04-18T21:24:14.764Z,9.00
2023-04-18T21:27:17.619Z,8.60
2023-04-18T21:30:22.503Z,8.50
2023-04-18T21:33:26.142Z,7.00
2023-04-18T21:36:30.618Z,9.23
2023-04-18T21:39:33.285Z,8.43
2023-04-18T21:42:36.478Z,7.97
2023-04-18T21:45:40.583Z,7.13
2023-04-18T21:48:45.357Z,8.47
2023-04-18T21:51:48.850Z,8.73
2023-04-18T21:54:51.492Z,10.10
2023-04-18T21:57:54.224Z,8.70
2023-04-18T22:00:58.436Z,7.77
2023-04-18T22:04:01.495Z,7.47
2023-04-18T22:07:04.491Z,7.03
2023-04-18T22:10:08.098Z,7.20
2023-04-18T22:13:11.342Z,8.07
2023-04-18T22:16:15.385Z,8.70
2023-04-18T22:19:19.162Z,8.47
2023-04-18T22:22:21.807Z,6.83
2023-04-18T22:25:24.428Z,9.17
2023-04-18T22:28:27.989Z,9.33
2023-04-18T22:31:32.101Z,10.27
2023-04-18T22:34:34.826Z,8.57
2023-04-18T22:37:37.438Z,11.70
2023-04-18T22:40:40.111Z,8.50
2023-04-18T22:43:42.942Z,7.33
2023-04-18T22:46:48.083Z,7.93
2023-04-18T22:49:51.699Z,8.10
2023-04-18T22:52:54.426Z,8.70
2023-04-18T22:55:57.027Z,8.33
2023-04-18T22:58:59.598Z,8.27
2023-04-18T23:02:03.616Z,9.77
2023-04-18T23:05:08.078Z,11.53
2023-04-18T23:08:11.892Z,8.67
2023-04-18T23:11:14.616Z,11.07
2023-04-18T23:14:17.309Z,9.77
2023-04-18T23:17:22.050Z,10.43
2023-04-18T23:20:24.899Z,9.63
2023-04-18T23:23:27.587Z,9.43
2023-04-18T23:26:30.224Z,11.47
2023-04-18T23:29:36.848Z,10.67
2023-04-18T23:32:40.936Z,9.23
2023-04-18T23:35:43.705Z,9.67
2023-04-18T23:38:46.883Z,10.50
2023-04-18T23:41:50.166Z,9.83
2023-04-18T23:44:52.831Z,10.77
2023-04-18T23:47:56.819Z,10.83
2023-04-18T23:50:59.516Z,11.23
2023-04-18T23:54:02.145Z,12.73
2023-04-18T23:57:04.859Z,11.33
